Main page
METAR-TAF:

METAR-TAF

Airports :

Osijek Airport

Osijek, Croatia

latitude: 45-27N, longitude: 018-48E, elevation: 88 m

Current weather observation

The report was made 35 minutes ago, at 08:30 UTC
Wind 4 kt from the Southeast, varying between East and South/Southwest
Temperature 22°C
Humidity 69%
Pressure 1017 hPa
Visibility 10 km or more
no clouds below 1500 m and no cumulonimbus

METAR: LDOS 210830Z 13004KT 080V210 CAVOK 22/16 Q1017

Time: 11:05 (09:05 UTC)

Forecast

The report was made 3 hours and 40 minutes ago, at 05:25 UTC
Forecast valid from 21 at 06 UTC to 22 at 06 UTC
Wind 4 kt from the Southeast
Visibility 10 km or more
no clouds below 1500 m and no cumulonimbus
Temporary
from 21 at 09 UTC to 21 at 18 UTC
Wind 8 kt from the Southeast
Becoming
from 22 at 05 UTC to 22 at 06 UTC
Wind 8 kt from the Northwest

TAF: LDOS 210525Z 2106/2206 14004KT CAVOK TX29/2113Z TN14/2106Z TEMPO 2109/2118 14008KT BECMG 2205/2206 32008KT

Weather observations and forecasts of more than 4000 airports (METAR and TAF reports).

The available stations are represented by yellow and red dots on the map.

Hover mouse over dot to see the name of the station.

Then click to see weather observations and forecasts.

To change the map : click on the green buttons with a black cross to zoom in, on the green button with a dash to zoom out, or on the green arrows for adjacent maps.


METAR-TAF: